Time;durP1;ratioP1;P1;durP2;ratioP2;P2;SDS_P1;SDS_P2;PMS_P1;PMS_P2;Temp;Humidity;BMP_temperature;BMP_pressure;BME280_temperature;BME280_humidity;BME280_pressure;Samples;Min_cycle;Max_cycle;Signal;HPM_P1;HPM_P2
2021/05/18 00:01:22;;;;;;;16.50;6.53;;;;;;;12.51;65.37;100877.75;4955630;28;20058;-57
2021/05/18 00:03:50;;;;;;;15.05;6.60;;;;;;;12.50;65.10;100876.09;4956033;28;20121;-55
2021/05/18 00:06:19;;;;;;;15.40;6.28;;;;;;;12.50;65.14;100878.84;4970893;28;20109;-57
2021/05/18 00:11:43;;;;;;;15.93;7.38;;;;;;;12.50;65.27;100878.84;4943142;29;20039;-56
2021/05/18 00:14:12;;;;;;;14.02;6.18;;;;;;;12.52;65.64;100887.56;4955713;28;20055;-57
2021/05/18 00:16:40;;;;;;;18.20;5.80;;;;;;;12.53;66.00;100875.53;4954758;28;20070;-57
2021/05/18 00:19:08;;;;;;;15.75;6.70;;;;;;;12.53;65.72;100883.72;4970443;28;20039;-56
2021/05/18 00:21:36;;;;;;;13.68;6.18;;;;;;;12.51;65.59;100875.84;4955732;28;20043;-56
2021/05/18 00:24:05;;;;;;;15.52;6.00;;;;;;;12.49;65.77;100879.94;4955566;28;20376;-56
2021/05/18 00:26:32;;;;;;;14.38;6.50;;;;;;;12.49;66.24;100875.28;4955467;28;20734;-55
2021/05/18 00:29:04;;;;;;;12.15;5.80;;;;;;;12.50;66.13;100876.09;4955772;28;20055;-57
2021/05/18 00:31:33;;;;;;;15.57;6.80;;;;;;;12.50;66.33;100873.38;4954051;29;20102;-57
2021/05/18 00:34:02;;;;;;;13.95;6.20;;;;;;;12.50;65.74;100879.66;4955575;28;20086;-55
2021/05/18 00:36:30;;;;;;;15.43;5.65;;;;;;;12.50;66.72;100881.56;4955707;28;20102;-57
2021/05/18 00:38:58;;;;;;;16.25;5.90;;;;;;;12.48;66.34;100878.28;4955485;28;20416;-56
2021/05/18 00:41:25;;;;;;;12.65;5.65;;;;;;;12.47;66.67;100882.13;4969809;28;20066;-56
2021/05/18 00:43:59;;;;;;;15.68;6.47;;;;;;;12.44;66.82;100882.69;4955020;28;20047;-57
2021/05/18 00:46:28;;;;;;;16.38;6.25;;;;;;;12.43;67.19;100886.50;4955076;28;20050;-56
2021/05/18 00:49:02;;;;;;;13.18;6.18;;;;;;;12.43;67.37;100889.25;4969788;28;20474;-57
2021/05/18 00:51:40;;;;;;;12.50;5.85;;;;;;;12.44;66.60;100890.91;4970109;28;20079;-55
2021/05/18 00:54:17;;;;;;;15.68;5.85;;;;;;;12.44;67.41;100893.63;4969791;28;20498;-58
2021/05/18 00:59:33;;;;;;;15.88;5.95;;;;;;;12.44;67.01;100890.91;4954707;28;20498;-57
2021/05/18 01:02:02;;;;;;;14.20;5.68;;;;;;;12.43;66.97;100889.25;4955129;28;20044;-56
2021/05/18 01:04:56;;;;;;;12.90;5.97;;;;;;;12.45;66.64;100890.59;4954375;29;20059;-56
2021/05/18 01:07:23;;;;;;;16.08;6.07;;;;;;;12.43;67.45;100891.97;4955003;28;20043;-57
2021/05/18 01:09:51;;;;;;;12.45;5.70;;;;;;;12.44;67.11;100899.09;4954544;28;20399;-55
2021/05/18 01:12:19;;;;;;;14.90;6.10;;;;;;;12.43;67.02;100894.72;4954947;28;20060;-57
2021/05/18 01:14:49;;;;;;;11.52;5.20;;;;;;;12.40;66.93;100898.00;4954131;28;20051;-53
2021/05/18 01:17:17;;;;;;;14.68;5.72;;;;;;;12.38;67.07;100894.72;4954758;28;20047;-53
2021/05/18 01:19:45;;;;;;;13.25;5.72;;;;;;;12.40;66.73;100898.00;4969577;28;20047;-53
2021/05/18 01:22:13;;;;;;;14.00;5.47;;;;;;;12.41;66.74;100896.91;4957488;29;20058;-58
2021/05/18 01:24:43;;;;;;;13.40;5.20;;;;;;;12.40;67.28;100893.34;4972245;28;20043;-56
2021/05/18 01:27:11;;;;;;;16.42;6.32;;;;;;;12.37;66.73;100893.91;4958232;28;20039;-59
2021/05/18 01:29:39;;;;;;;13.10;5.90;;;;;;;12.35;66.59;100902.38;4964327;28;20107;-65
2021/05/18 01:32:08;;;;;;;16.23;6.90;;;;;;;12.36;67.41;100901.31;4973287;28;20414;-56
2021/05/18 01:34:36;;;;;;;13.95;5.45;;;;;;;12.39;67.32;100901.81;4954302;28;20117;-56
2021/05/18 01:37:04;;;;;;;13.88;5.38;;;;;;;12.35;67.06;100905.13;4970685;28;20048;-61
2021/05/18 01:44:56;;;;;;;14.90;5.97;;;;;;;12.32;69.02;100910.34;4954327;28;20046;-56
2021/05/18 01:47:24;;;;;;;12.35;6.22;;;;;;;12.29;69.68;100900.78;4954241;28;20379;-56
2021/05/18 01:49:54;;;;;;;12.23;5.82;;;;;;;12.27;70.02;100907.63;4954291;28;20094;-56
2021/05/18 01:52:21;;;;;;;12.10;6.55;;;;;;;12.21;70.77;100900.50;4953898;28;20093;-55
2021/05/18 01:54:51;;;;;;;12.48;6.20;;;;;;;12.23;70.17;100907.34;4968949;28;20052;-51
2021/05/18 01:57:20;;;;;;;14.30;6.90;;;;;;;12.18;71.43;100909.28;4953684;28;20051;-50
2021/05/18 02:00:30;;;;;;;12.15;6.90;;;;;;;12.08;71.81;100918.31;4932775;29;20050;-54
2021/05/18 02:03:10;;;;;;;13.43;5.95;;;;;;;12.08;71.95;100907.38;4916829;29;20470;-56
2021/05/18 02:05:41;;;;;;;12.70;6.82;;;;;;;12.09;72.01;100909.00;4932537;29;20724;-52
2021/05/18 02:08:31;;;;;;;11.65;7.05;;;;;;;12.05;72.72;100913.38;4932426;29;20483;-56
2021/05/18 02:11:02;;;;;;;11.70;6.90;;;;;;;12.00;72.69;100907.91;4932141;29;20095;-52
2021/05/18 02:13:32;;;;;;;14.02;7.63;;;;;;;12.00;72.77;100918.84;4917160;29;20130;-54
2021/05/18 02:16:11;;;;;;;12.55;7.53;;;;;;;11.99;72.91;100915.31;4916420;29;20466;-56
2021/05/18 02:27:06;;;;;;;11.65;7.68;;;;;;;11.98;73.24;100923.75;4932118;29;20043;-55
2021/05/18 02:29:34;;;;;;;12.43;8.20;;;;;;;11.96;72.57;100920.50;4932497;29;20054;-55
2021/05/18 02:32:03;;;;;;;11.25;7.53;;;;;;;11.97;73.46;100922.13;4948855;29;20059;-53
2021/05/18 02:34:53;;;;;;;12.15;8.32;;;;;;;11.99;73.03;100925.41;4953475;28;20058;-56
2021/05/18 02:37:21;;;;;;;11.55;8.35;;;;;;;11.99;73.53;100919.94;4968758;28;20047;-55
2021/05/18 02:39:50;;;;;;;12.63;8.43;;;;;;;11.97;73.06;100925.69;4962758;28;20043;-55
2021/05/18 02:42:18;;;;;;;11.95;8.48;;;;;;;11.98;73.20;100923.75;4972048;28;20639;-54
2021/05/18 02:50:12;;;;;;;12.65;8.27;;;;;;;12.02;73.66;100925.66;4972205;28;20461;-55
2021/05/18 02:52:41;;;;;;;14.05;9.68;;;;;;;12.02;73.86;100924.84;4957102;28;20054;-53
2021/05/18 02:55:21;;;;;;;15.18;9.57;;;;;;;12.00;73.18;100918.84;4956010;29;20048;-55
2021/05/18 02:57:52;;;;;;;13.73;9.07;;;;;;;12.00;73.25;100924.31;4956944;28;20051;-54
2021/05/18 03:00:25;;;;;;;12.95;9.05;;;;;;;12.00;73.75;100927.88;4957400;28;20513;-53
2021/05/18 03:02:52;;;;;;;15.73;9.70;;;;;;;11.99;73.51;100926.22;4956873;28;20398;-56
2021/05/18 03:05:25;;;;;;;12.32;9.20;;;;;;;12.00;74.02;100921.56;4956304;29;20126;-55
2021/05/18 03:07:58;;;;;;;12.27;9.60;;;;;;;12.01;73.68;100925.97;4957105;28;20047;-55
2021/05/18 03:10:26;;;;;;;12.82;10.05;;;;;;;12.01;73.76;100926.78;4956371;28;20070;-57
2021/05/18 03:12:54;;;;;;;14.82;9.95;;;;;;;12.02;73.60;100913.94;4956575;28;20040;-55
2021/05/18 03:15:22;;;;;;;11.80;9.18;;;;;;;12.00;73.75;100933.34;4956975;28;20438;-55
2021/05/18 03:17:51;;;;;;;16.73;11.07;;;;;;;11.99;74.21;100928.16;4956901;28;20114;-55
2021/05/18 03:20:19;;;;;;;14.38;9.63;;;;;;;11.97;73.84;100928.41;4971860;28;20386;-55
2021/05/18 03:22:47;;;;;;;13.25;9.77;;;;;;;11.98;74.74;100929.22;4957027;28;20079;-56
2021/05/18 03:25:15;;;;;;;13.95;9.38;;;;;;;11.95;74.73;100927.84;4956097;28;20046;-53
2021/05/18 03:27:43;;;;;;;15.30;11.25;;;;;;;11.93;74.27;100930.88;4956831;28;20055;-56
2021/05/18 03:30:20;;;;;;;14.02;11.15;;;;;;;11.94;74.56;100935.25;4956645;28;20122;-55
2021/05/18 03:35:36;;;;;;;14.93;10.20;;;;;;;11.94;74.71;100932.50;4955452;29;20054;-56
2021/05/18 03:38:26;;;;;;;15.43;11.10;;;;;;;11.94;74.52;100929.78;4956165;28;20047;-55
2021/05/18 03:40:58;;;;;;;13.73;10.80;;;;;;;11.95;73.92;100925.13;4956476;28;20098;-55
2021/05/18 04:02:45;;;;;;;14.45;9.70;;;;;;;11.87;74.55;100945.63;4955969;28;19934;-55
2021/05/18 04:18:39;;;;;;;12.65;8.98;;;;;;;11.86;74.41;100949.41;4955736;28;20055;-56
2021/05/18 04:21:29;;;;;;;16.58;9.68;;;;;;;11.86;74.44;100956.81;4955968;28;20059;-55
2021/05/18 04:48:22;;;;;;;15.45;10.32;;;;;;;11.88;74.43;100969.13;4955567;29;20053;-56
2021/05/18 04:59:50;;;;;;;14.55;10.40;;;;;;;11.85;74.81;100986.00;4943603;29;20063;-61
2021/05/18 05:02:56;;;;;;;;;;;;;;;11.85;74.21;100982.44;4970531;28;20055;-58
2021/05/18 05:08:23;;;;;;;;;;;;;;;11.87;74.26;100994.75;4943606;29;20052;-57
2021/05/18 05:16:08;;;;;;;;;;;;;;;11.82;74.80;100997.47;4969889;28;20093;-56
2021/05/18 05:18:35;;;;;;;20.45;14.98;;;;;;;11.81;75.09;101001.28;4954722;28;19930;-57
2021/05/18 05:21:03;;;;;;;22.33;13.25;;;;;;;11.83;74.86;101001.00;4953948;28;20047;-54
2021/05/18 05:23:31;;;;;;;19.13;13.68;;;;;;;11.83;75.16;100996.34;4943099;29;20570;-55
2021/05/18 05:25:59;;;;;;;19.35;11.88;;;;;;;11.85;74.27;100996.91;4954732;28;20043;-55
2021/05/18 05:28:26;;;;;;;17.77;11.35;;;;;;;11.85;74.89;100994.19;4954965;28;20090;-56
2021/05/18 05:30:54;;;;;;;17.77;12.60;;;;;;;11.86;74.45;100993.09;4954305;28;20050;-57
2021/05/18 05:33:22;;;;;;;17.08;11.60;;;;;;;11.91;74.78;100990.41;4954047;28;20050;-55
2021/05/18 05:35:50;;;;;;;16.77;11.68;;;;;;;11.98;74.67;100989.28;4953648;28;20047;-58
2021/05/18 05:38:21;;;;;;;19.63;13.52;;;;;;;12.02;74.83;100990.41;4954394;28;20058;-58
2021/05/18 05:40:50;;;;;;;18.25;11.95;;;;;;;12.04;74.64;100989.03;4954035;28;20061;-58
2021/05/18 05:43:18;;;;;;;18.17;11.80;;;;;;;12.04;74.13;100996.41;4954207;28;20302;-58
2021/05/18 05:45:46;;;;;;;18.15;11.82;;;;;;;11.99;74.64;100996.41;4954146;28;20114;-55
2021/05/18 05:48:14;;;;;;;19.58;11.65;;;;;;;11.99;74.78;100999.97;4267916;28;10000867;-56
2021/05/18 05:50:41;;;;;;;22.45;12.30;;;;;;;11.98;75.12;101003.78;4951634;28;20055;-56
2021/05/18 05:53:09;;;;;;;15.05;9.23;;;;;;;12.04;74.41;101010.06;4951928;28;20059;-56
2021/05/18 05:55:37;;;;;;;18.65;11.40;;;;;;;12.02;74.37;101001.31;4949611;28;20074;-57
2021/05/18 05:58:05;;;;;;;18.42;12.13;;;;;;;11.99;74.96;101010.88;4940981;29;20093;-57
2021/05/18 06:00:33;;;;;;;23.45;14.00;;;;;;;11.99;74.76;101008.16;4966219;28;20514;-56
2021/05/18 06:03:02;;;;;;;18.70;13.20;;;;;;;11.93;74.23;101010.06;4951527;28;20527;-56
2021/05/18 06:05:30;;;;;;;16.63;11.30;;;;;;;11.92;74.90;101010.34;4951830;28;20443;-56
2021/05/18 06:07:59;;;;;;;23.02;13.07;;;;;;;11.94;74.81;101019.06;4950681;29;20079;-56
2021/05/18 06:10:31;;;;;;;19.92;13.50;;;;;;;11.96;74.95;101024.28;4951775;28;20082;-57
2021/05/18 06:43:10;;;;;;;22.92;15.10;;;;;;;11.89;74.22;101047.19;4957739;28;20130;-58
2021/05/18 06:46:08;;;;;;;21.85;14.25;;;;;;;11.86;75.13;101057.81;4948475;29;20047;-59
2021/05/18 06:48:37;;;;;;;19.95;13.77;;;;;;;11.86;75.27;101058.63;4956515;28;20402;-59
2021/05/18 06:51:05;;;;;;;19.70;12.73;;;;;;;11.90;75.25;101053.47;4956759;28;20066;-57
2021/05/18 06:53:33;;;;;;;17.85;11.65;;;;;;;11.94;75.32;101065.50;4957449;28;20062;-56
2021/05/18 06:56:02;;;;;;;21.40;13.40;;;;;;;11.96;74.81;101057.03;4958604;28;20094;-59
2021/05/18 07:01:08;;;;;;;19.80;12.82;;;;;;;12.04;74.23;101064.69;4959517;28;20039;-57
2021/05/18 07:03:50;;;;;;;21.75;12.30;;;;;;;12.04;73.73;101061.94;4958275;28;20048;-56
2021/05/18 07:09:08;;;;;;;25.77;15.13;;;;;;;11.98;74.45;101076.69;4959850;28;20495;-57
2021/05/18 07:11:38;;;;;;;22.15;15.10;;;;;;;11.94;73.83;101077.22;4958379;28;20510;-58
2021/05/18 07:14:08;;;;;;;84.32;15.32;;;;;;;11.97;75.04;101078.59;4974399;28;20086;-56
2021/05/18 07:16:37;;;;;;;21.90;12.95;;;;;;;12.04;73.59;101081.06;4959265;28;20081;-58
2021/05/18 07:19:09;;;;;;;19.60;13.77;;;;;;;12.05;72.69;101089.00;4958275;28;20047;-56
2021/05/18 07:21:48;;;;;;;19.90;12.95;;;;;;;12.05;73.82;101091.72;4958401;28;20078;-56
2021/05/18 07:24:28;;;;;;;19.30;14.20;;;;;;;12.05;73.51;101099.09;4958237;28;20044;-57
2021/05/18 07:27:08;;;;;;;19.42;13.23;;;;;;;12.01;73.35;101095.28;4954354;28;20523;-56
2021/05/18 07:29:35;;;;;;;18.17;12.85;;;;;;;12.04;73.58;101102.91;4956440;28;20894;-57
2021/05/18 07:32:03;;;;;;;22.40;14.40;;;;;;;12.07;73.45;101103.19;4956050;28;20043;-56
2021/05/18 07:34:31;;;;;;;20.38;10.98;;;;;;;12.11;73.28;101104.28;4956615;28;20055;-57
2021/05/18 07:36:59;;;;;;;18.83;13.00;;;;;;;12.21;72.01;101105.41;4956783;28;20486;-57
2021/05/18 07:39:27;;;;;;;25.88;10.90;;;;;;;12.26;72.25;101103.47;4956513;28;20043;-56
2021/05/18 07:41:55;;;;;;;19.38;12.73;;;;;;;12.24;71.41;101105.69;4956077;28;20039;-55
2021/05/18 07:44:22;;;;;;;26.35;13.07;;;;;;;12.24;72.15;101108.41;4955132;29;20047;-52
2021/05/18 07:46:50;;;;;;;17.10;11.73;;;;;;;12.19;71.53;101113.03;4955693;28;20383;-56
2021/05/18 07:49:29;;;;;;;22.77;11.88;;;;;;;12.08;71.59;101110.31;4956525;28;20098;-55
2021/05/18 08:00:30;;;;;;;16.83;10.10;;;;;;;12.25;70.65;101115.50;4970775;28;19965;-54
2021/05/18 08:05:46;;;;;;;15.30;9.88;;;;;;;12.33;70.15;101128.63;4956126;28;20078;-58
2021/05/18 08:08:13;;;;;;;14.38;9.80;;;;;;;12.31;70.14;101122.63;4954935;29;20055;-53
2021/05/18 08:10:59;;;;;;;20.67;9.43;;;;;;;12.39;70.48;101114.97;4955749;28;20062;-54
2021/05/18 08:13:27;;;;;;;23.85;9.93;;;;;;;12.45;69.84;101111.97;4956193;28;20474;-56
2021/05/18 08:47:52;;;;;;;11.60;6.28;;;;;;;13.31;64.52;101104.72;4955058;28;20051;-55
2021/05/18 10:14:31;;;;;;;8.52;4.10;;;;;;;13.57;57.04;101112.84;4897729;29;20040;-56
2021/05/18 10:36:15;;;;;;;29.73;9.90;;;;;;;13.78;55.16;101114.38;4951304;29;20118;-55
2021/05/18 10:38:46;;;;;;;16.75;6.28;;;;;;;13.87;55.68;101116.50;4938901;29;20046;-57
2021/05/18 10:41:22;;;;;;;26.52;9.65;;;;;;;13.89;57.46;101115.13;4950942;29;20055;-57
2021/05/18 10:43:59;;;;;;;13.02;6.20;;;;;;;13.95;58.32;101111.28;4951329;29;20047;-57
2021/05/18 10:46:31;;;;;;;12.10;6.10;;;;;;;13.95;59.25;101116.75;4951136;29;20131;-58
2021/05/18 10:49:02;;;;;;;24.42;9.40;;;;;;;14.05;60.54;101119.41;4951715;29;20130;-57
2021/05/18 10:51:43;;;;;;;45.95;15.65;;;;;;;14.25;61.13;101120.38;4951710;29;20043;-57
2021/05/18 10:54:42;;;;;;;41.17;13.57;;;;;;;14.30;60.16;101119.53;4935104;29;20115;-57
2021/05/18 10:57:13;;;;;;;15.18;6.63;;;;;;;14.15;57.86;101125.94;4935357;29;20106;-57
2021/05/18 10:59:47;;;;;;;32.55;11.45;;;;;;;14.09;57.92;101125.13;4932766;29;20040;-58
2021/05/18 11:02:30;;;;;;;11.47;6.13;;;;;;;14.00;58.87;101127.66;4950206;29;20546;-59
2021/05/18 11:05:04;;;;;;;25.52;9.25;;;;;;;14.05;58.90;101124.09;4954365;29;20134;-56
2021/05/18 11:07:38;;;;;;;9.80;5.30;;;;;;;14.04;59.61;101125.97;4938877;29;20445;-56
2021/05/18 11:10:08;;;;;;;17.05;7.60;;;;;;;14.16;59.58;101119.34;4954350;29;20091;-57
2021/05/18 11:12:36;;;;;;;15.07;6.18;;;;;;;14.27;59.02;101116.25;4954186;28;20077;-57
2021/05/18 11:15:07;;;;;;;15.77;7.05;;;;;;;14.35;57.61;101117.53;4957179;28;20475;-56
2021/05/18 11:17:37;;;;;;;9.52;5.03;;;;;;;14.34;55.37;101123.34;4956995;28;20055;-56
2021/05/18 11:20:12;;;;;;;10.20;4.97;;;;;;;14.37;55.10;101118.09;4956590;28;20074;-57
2021/05/18 11:25:49;;;;;;;11.82;5.03;;;;;;;14.45;54.01;101117.47;4956421;28;20039;-56
2021/05/18 11:28:28;;;;;;;8.48;4.53;;;;;;;14.45;53.53;101111.97;4956846;28;20043;-56
2021/05/18 11:30:59;;;;;;;15.57;5.20;;;;;;;14.55;53.85;101115.78;4944292;28;20103;-55
2021/05/18 11:33:42;;;;;;;8.38;4.25;;;;;;;14.52;51.19;101105.34;4956072;29;20042;-56
2021/05/18 11:36:20;;;;;;;8.88;4.47;;;;;;;14.46;52.56;101113.63;4956299;28;20047;-55
2021/05/18 11:38:49;;;;;;;7.45;4.22;;;;;;;14.45;52.22;101116.66;4956254;28;20046;-57
2021/05/18 11:41:30;;;;;;;11.13;4.68;;;;;;;14.45;54.14;101111.97;4955963;28;20471;-58
2021/05/18 11:43:59;;;;;;;8.95;4.05;;;;;;;14.47;52.49;101119.91;4955338;28;20055;-56
2021/05/18 11:46:30;;;;;;;9.43;4.95;;;;;;;14.46;53.32;101116.38;4956347;28;20054;-56
2021/05/18 11:49:04;;;;;;;10.40;4.28;;;;;;;14.43;53.17;101130.66;4956066;28;20371;-56
2021/05/18 11:51:54;;;;;;;12.23;4.30;;;;;;;14.36;51.11;101132.91;4955861;28;20087;-56
2021/05/18 11:54:42;;;;;;;8.40;4.47;;;;;;;14.33;51.93;101119.75;4956140;28;20050;-58
2021/05/18 11:57:09;;;;;;;6.05;3.90;;;;;;;14.33;52.39;101127.16;4956042;28;20110;-55
2021/05/18 11:59:37;;;;;;;6.88;4.00;;;;;;;14.38;54.09;101127.13;4970794;28;20047;-54
2021/05/18 12:02:06;;;;;;;7.45;3.85;;;;;;;14.39;52.90;101134.25;4954544;29;20051;-57
2021/05/18 12:04:37;;;;;;;8.43;4.40;;;;;;;14.35;53.76;101135.94;4955721;28;20047;-57
2021/05/18 12:07:12;;;;;;;8.77;4.20;;;;;;;14.35;51.91;101139.47;4955686;28;20040;-56
2021/05/18 12:09:44;;;;;;;7.53;3.95;;;;;;;14.43;50.34;101138.88;4955572;28;20057;-57
2021/05/18 12:12:15;;;;;;;7.40;3.38;;;;;;;14.51;47.80;101131.16;4954840;28;20058;-56
2021/05/18 12:14:47;;;;;;;7.00;3.55;;;;;;;14.48;49.06;101127.88;4954380;29;20134;-56
2021/05/18 12:17:27;;;;;;;7.22;3.55;;;;;;;14.54;48.61;101125.13;4956033;28;20082;-56
2021/05/18 12:19:55;;;;;;;8.48;3.70;;;;;;;14.59;47.60;101133.28;4942425;29;20054;-56
2021/05/18 12:22:23;;;;;;;8.10;3.97;;;;;;;14.64;48.21;101125.03;4955262;28;20496;-57
2021/05/18 12:24:54;;;;;;;7.15;4.03;;;;;;;14.68;48.89;101131.56;4954195;29;20110;-57
2021/05/18 12:27:22;;;;;;;8.48;4.68;;;;;;;14.70;50.02;101134.84;4955258;28;20122;-57
2021/05/18 12:29:52;;;;;;;9.10;4.85;;;;;;;14.66;49.47;101129.09;4955704;28;20046;-58
2021/05/18 12:32:28;;;;;;;7.13;4.40;;;;;;;14.65;49.70;101122.00;4954317;29;20142;-55
2021/05/18 12:35:17;;;;;;;9.27;4.35;;;;;;;14.65;49.49;101134.91;4954840;28;20446;-56
2021/05/18 12:37:49;;;;;;;7.68;3.70;;;;;;;14.64;48.52;101125.03;4955448;28;20035;-56
2021/05/18 12:40:25;;;;;;;7.03;4.00;;;;;;;14.66;47.43;101145.56;4955443;28;20034;-54
2021/05/18 12:42:54;;;;;;;6.20;3.20;;;;;;;14.61;46.06;101142.88;4955125;28;20039;-55
2021/05/18 12:45:26;;;;;;;5.75;3.20;;;;;;;14.65;45.24;101143.13;4955189;28;20039;-55
2021/05/18 12:47:58;;;;;;;6.20;3.60;;;;;;;14.69;45.83;101138.69;4955247;28;20050;-58
2021/05/18 12:50:55;;;;;;;5.47;3.40;;;;;;;14.78;46.32;101142.44;4954431;28;20051;-56
2021/05/18 12:53:26;;;;;;;9.13;4.30;;;;;;;14.87;45.63;101140.72;4952601;28;20469;-55
2021/05/18 12:55:55;;;;;;;6.63;3.85;;;;;;;14.90;45.80;101137.38;4952618;29;20434;-56
2021/05/18 12:58:34;;;;;;;8.15;4.03;;;;;;;14.96;47.11;101137.34;4952855;29;20055;-56
2021/05/18 13:01:19;;;;;;;8.80;4.55;;;;;;;14.90;46.56;101151.09;4936769;29;20206;-56
2021/05/18 13:03:47;;;;;;;9.15;4.35;;;;;;;14.93;46.67;101149.72;4952512;29;20062;-55
2021/05/18 13:06:15;;;;;;;8.05;4.50;;;;;;;14.96;47.28;101142.81;4952105;29;20054;-57
2021/05/18 13:08:45;;;;;;;8.77;4.63;;;;;;;14.93;46.14;101143.41;4952637;29;20048;-59
2021/05/18 13:13:52;;;;;;;10.35;5.60;;;;;;;14.86;48.82;101162.94;4952396;29;20043;-58
2021/05/18 13:16:34;;;;;;;9.70;5.47;;;;;;;14.83;49.78;101147.88;4952275;29;20057;-56
2021/05/18 13:19:11;;;;;;;8.43;5.22;;;;;;;14.83;50.24;101161.59;4951887;29;20174;-54
2021/05/18 13:21:51;;;;;;;10.15;5.32;;;;;;;14.83;48.43;101150.63;4952472;29;20054;-58
2021/05/18 13:26:49;;;;;;;8.30;4.60;;;;;;;14.95;47.86;101157.66;4952210;29;20082;-58
2021/05/18 13:29:18;;;;;;;8.23;5.10;;;;;;;14.94;48.23;101156.03;4947538;29;20068;-56
2021/05/18 13:31:51;;;;;;;8.65;4.97;;;;;;;14.87;49.29;101165.41;4941156;29;20081;-56
2021/05/18 13:34:38;;;;;;;8.50;4.55;;;;;;;14.82;49.67;101165.47;4952458;29;20477;-56
2021/05/18 13:37:08;;;;;;;11.00;4.68;;;;;;;14.77;49.67;101168.25;4954355;28;20414;-57
2021/05/18 13:39:36;;;;;;;8.13;4.50;;;;;;;14.76;49.77;101158.38;4954030;28;20510;-55
2021/05/18 13:42:06;;;;;;;7.53;4.35;;;;;;;14.76;49.36;101161.13;4954375;28;20035;-57
2021/05/18 13:44:38;;;;;;;8.38;4.30;;;;;;;14.77;49.84;101156.44;4952951;28;20409;-56
2021/05/18 13:47:07;;;;;;;10.57;5.05;;;;;;;14.80;48.82;101156.69;4940773;29;20062;-56
2021/05/18 13:49:35;;;;;;;8.82;4.95;;;;;;;14.86;48.50;101152.81;4968753;28;20150;-57
2021/05/18 13:52:21;;;;;;;8.77;4.32;;;;;;;14.98;46.55;101162.56;4968830;28;20066;-56
2021/05/18 13:54:50;;;;;;;8.40;4.18;;;;;;;15.02;46.00;101152.66;4954460;28;20043;-58
2021/05/18 13:57:18;;;;;;;7.82;4.28;;;;;;;15.08;47.24;101148.72;4953860;28;20062;-53
2021/05/18 13:59:48;;;;;;;9.73;4.13;;;;;;;15.20;48.06;101154.66;4954070;28;20051;-54
2021/05/18 14:02:17;;;;;;;6.78;3.92;;;;;;;15.32;46.50;101156.97;4968351;28;20057;-54
2021/05/18 14:04:45;;;;;;;9.25;4.45;;;;;;;15.38;47.10;101158.56;4954256;28;20047;-55
2021/05/18 14:10:47;;;;;;;9.68;4.78;;;;;;;15.36;47.88;101162.72;4951432;29;20059;-53
2021/05/18 14:13:14;;;;;;;8.95;5.05;;;;;;;15.24;47.81;101166.69;4951785;29;20494;-54
2021/05/18 14:15:45;;;;;;;7.20;4.30;;;;;;;15.16;46.21;101161.03;4932475;29;20059;-58
2021/05/18 14:18:13;;;;;;;6.78;4.07;;;;;;;15.12;46.02;101169.00;4951116;29;20051;-56
2021/05/18 14:20:42;;;;;;;8.00;4.00;;;;;;;15.11;46.58;101156.41;4951643;29;20056;-54
2021/05/18 14:23:10;;;;;;;10.35;5.05;;;;;;;15.15;47.42;101167.59;4951513;29;20395;-54
2021/05/18 14:25:38;;;;;;;10.38;4.47;;;;;;;15.13;47.86;101167.91;4951707;29;20047;-54
2021/05/18 14:28:26;;;;;;;7.72;3.90;;;;;;;15.13;48.29;101171.47;4932641;29;20175;-54
2021/05/18 14:30:55;;;;;;;9.35;4.07;;;;;;;15.12;48.51;101169.00;4940525;29;20142;-56
2021/05/18 14:33:23;;;;;;;7.35;4.05;;;;;;;15.07;48.13;101169.06;4949345;29;20066;-55
2021/05/18 14:35:52;;;;;;;9.18;4.30;;;;;;;15.03;48.24;101171.59;4952463;28;20055;-56
2021/05/18 14:38:23;;;;;;;7.15;4.20;;;;;;;15.01;47.99;101172.94;4952387;29;20450;-57
2021/05/18 14:46:18;;;;;;;9.48;4.53;;;;;;;14.91;48.54;101182.94;4949763;29;20099;-55
2021/05/18 14:56:59;;;;;;;12.20;4.00;;;;;;;15.05;47.54;101182.25;4957422;28;20051;-55
2021/05/18 14:59:27;;;;;;;6.03;3.78;;;;;;;15.19;47.80;101174.16;4956596;28;20498;-56
2021/05/18 15:01:55;;;;;;;9.30;3.70;;;;;;;15.22;46.12;101184.56;4971530;28;20047;-56
2021/05/18 15:04:23;;;;;;;9.25;3.65;;;;;;;15.21;46.34;101182.94;4956764;28;20063;-52
2021/05/18 15:06:51;;;;;;;8.13;4.40;;;;;;;15.16;47.66;101191.22;4957159;28;20560;-54
2021/05/18 15:09:19;;;;;;;6.43;3.67;;;;;;;15.10;47.77;101180.28;4956687;28;20066;-55
2021/05/18 15:11:47;;;;;;;9.52;4.50;;;;;;;15.02;48.15;101191.06;4957044;28;20155;-54
2021/05/18 15:14:14;;;;;;;8.93;3.90;;;;;;;14.98;47.59;101190.00;4275152;28;10000671;-54
2021/05/18 15:16:42;;;;;;;8.23;3.75;;;;;;;14.94;47.32;101188.97;4954928;28;20290;-54
2021/05/18 15:19:16;;;;;;;7.82;3.70;;;;;;;14.88;46.04;101201.88;4953521;29;20044;-55
2021/05/18 15:21:44;;;;;;;6.30;3.22;;;;;;;14.93;46.33;101190.06;4955289;28;20047;-51
2021/05/18 15:24:12;;;;;;;5.75;3.05;;;;;;;14.91;46.37;101199.41;4955925;28;20058;-55
2021/05/18 15:26:40;;;;;;;8.40;3.45;;;;;;;14.89;46.32;101203.53;4969579;28;20051;-56
2021/05/18 15:29:07;;;;;;;7.10;3.10;;;;;;;14.83;46.11;101205.50;4955392;29;20047;-54
2021/05/18 15:31:36;;;;;;;5.07;3.20;;;;;;;14.85;46.79;101202.47;4955128;28;20055;-55
2021/05/18 15:34:03;;;;;;;7.88;3.72;;;;;;;14.87;46.10;101209.31;4955755;28;20071;-56
2021/05/18 15:36:31;;;;;;;4.85;3.10;;;;;;;14.93;46.48;101203.78;4956212;28;20051;-57
2021/05/18 15:38:59;;;;;;;8.00;3.35;;;;;;;15.03;45.49;101203.69;4955769;28;20051;-56
2021/05/18 15:41:27;;;;;;;4.55;3.00;;;;;;;15.09;45.84;101213.50;4955954;28;20043;-56
2021/05/18 15:43:55;;;;;;;9.05;3.95;;;;;;;15.07;46.09;101218.47;4953010;28;20047;-52
2021/05/18 15:46:23;;;;;;;7.75;3.70;;;;;;;15.07;45.55;101210.22;4967955;28;20035;-52
2021/05/18 15:48:51;;;;;;;10.15;4.03;;;;;;;15.12;46.40;101218.41;4953694;28;20078;-54
2021/05/18 15:51:19;;;;;;;6.22;3.70;;;;;;;15.11;45.76;101220.34;4954231;28;20082;-54
2021/05/18 15:53:47;;;;;;;8.40;3.40;;;;;;;15.12;44.98;101221.97;4968607;28;20051;-54
2021/05/18 15:56:18;;;;;;;6.75;3.15;;;;;;;15.16;44.95;101230.47;4969245;28;20126;-56
2021/05/18 15:58:46;;;;;;;6.35;3.28;;;;;;;15.09;45.10;101219.81;4953447;28;20510;-56
2021/05/18 16:01:16;;;;;;;5.05;3.15;;;;;;;15.05;45.99;101223.41;4953088;28;20047;-53
2021/05/18 16:03:44;;;;;;;10.18;3.58;;;;;;;15.05;45.43;101229.72;4962368;28;20039;-54
2021/05/18 16:06:13;;;;;;;5.60;3.38;;;;;;;15.10;46.19;101226.13;4968372;28;20091;-54
2021/05/18 16:11:19;;;;;;;4.78;3.03;;;;;;;15.13;45.24;101247.50;4951899;28;20039;-51
2021/05/18 16:13:46;;;;;;;6.40;3.15;;;;;;;15.05;44.88;101237.13;4952525;28;20043;-50
2021/05/18 16:16:17;;;;;;;10.10;3.33;;;;;;;15.05;45.04;101239.88;4951930;29;20039;-54
2021/05/18 16:18:48;;;;;;;6.60;3.00;;;;;;;14.99;44.40;101238.31;4953471;28;20070;-55
2021/05/18 16:21:18;;;;;;;5.88;2.88;;;;;;;15.03;44.85;101240.19;4953405;28;20039;-53
2021/05/18 16:23:49;;;;;;;7.35;2.90;;;;;;;15.10;45.09;101234.34;4953560;28;20126;-51
2021/05/18 16:26:21;;;;;;;7.35;2.80;;;;;;;15.17;44.45;101236.75;4952936;28;20075;-51
2021/05/18 16:28:49;;;;;;;5.50;2.63;;;;;;;15.19;43.15;101240.84;4952793;28;20051;-53
2021/05/18 16:31:16;;;;;;;4.78;2.53;;;;;;;15.19;43.86;101246.34;4954834;28;20071;-54
2021/05/18 16:33:45;;;;;;;6.32;2.60;;;;;;;15.21;44.07;101246.88;4955888;28;20055;-53
2021/05/18 16:36:15;;;;;;;5.40;2.50;;;;;;;15.19;43.40;101251.84;4953857;28;20054;-55
2021/05/18 16:38:43;;;;;;;3.30;1.90;;;;;;;15.15;42.51;101250.75;4953150;28;20106;-55
2021/05/18 16:41:33;;;;;;;6.75;2.15;;;;;;;15.18;43.44;101260.38;4952489;28;20522;-54
2021/05/18 16:44:01;;;;;;;5.03;2.08;;;;;;;15.16;44.02;101252.41;4953099;28;20479;-52
2021/05/18 16:46:29;;;;;;;4.07;2.30;;;;;;;15.10;44.16;101257.16;4953114;28;20047;-59
2021/05/18 16:48:57;;;;;;;6.20;2.13;;;;;;;15.10;44.54;101261.78;4952519;28;20549;-57
2021/05/18 16:51:25;;;;;;;6.07;2.45;;;;;;;15.07;44.98;101265.13;4952945;28;20577;-55